Time;durP1;ratioP1;P1;durP2;ratioP2;P2;SDS_P1;SDS_P2;PMS_P1;PMS_P2;Temp;Humidity;BMP_temperature;BMP_pressure;BME280_temperature;BME280_humidity;BME280_pressure;Samples;Min_cycle;Max_cycle;Signal;HPM_P1;HPM_P2
2021/04/13 00:01:14;;;;;;;1.50;1.00;;;22.20;56.90;;;;;;5142492;27;20023;-35
2021/04/13 00:03:57;;;;;;;1.20;1.00;;;22.20;56.80;;;;;;5146507;27;20498;-35
2021/04/13 00:06:39;;;;;;;1.30;1.10;;;22.20;56.70;;;;;;5146033;27;20027;-35
2021/04/13 00:09:22;;;;;;;1.13;1.00;;;22.20;56.70;;;;;;5128484;27;20028;-35
2021/04/13 00:11:58;;;;;;;0.90;0.85;;;22.10;56.60;;;;;;5105088;28;20382;-35
2021/04/13 00:14:26;;;;;;;1.10;0.90;;;22.20;56.50;;;;;;5092756;27;20034;-35
2021/04/13 00:16:53;;;;;;;0.82;0.75;;;22.10;56.50;;;;;;5122461;28;20094;-35
2021/04/13 00:19:30;;;;;;;1.20;0.88;;;22.10;56.70;;;;;;5107445;28;20035;-35
2021/04/13 00:21:56;;;;;;;1.10;1.00;;;22.10;56.60;;;;;;5111972;27;20031;-34
2021/04/13 00:24:23;;;;;;;1.45;1.00;;;22.10;56.60;;;;;;5127754;27;20035;-35
2021/04/13 00:26:50;;;;;;;0.87;0.83;;;22.10;56.50;;;;;;5089674;28;20059;-34
2021/04/13 00:29:22;;;;;;;1.42;1.02;;;22.10;56.50;;;;;;5105307;28;20617;-34
2021/04/13 00:31:49;;;;;;;1.10;1.00;;;22.10;56.50;;;;;;5103940;28;20082;-34
2021/04/13 00:34:24;;;;;;;0.95;0.88;;;22.10;56.60;;;;;;5105154;28;20025;-34
2021/04/13 00:36:56;;;;;;;1.30;1.02;;;22.10;56.60;;;;;;5103241;28;20036;-34
2021/04/13 00:39:26;;;;;;;1.58;1.10;;;22.10;56.70;;;;;;5105336;28;20027;-35
2021/04/13 00:41:56;;;;;;;1.27;0.95;;;22.10;56.70;;;;;;5125125;28;20045;-35
2021/04/13 00:44:23;;;;;;;0.77;0.77;;;22.10;56.60;;;;;;5106774;28;20046;-35
2021/04/13 00:46:50;;;;;;;1.30;1.00;;;22.10;56.60;;;;;;5125014;28;20555;-34
2021/04/13 00:49:17;;;;;;;1.40;0.90;;;22.10;56.60;;;;;;5106865;28;20065;-34
2021/04/13 00:51:47;;;;;;;1.10;1.00;;;22.10;56.70;;;;;;5106724;28;20047;-34
2021/04/13 00:54:18;;;;;;;1.20;0.90;;;22.00;56.50;;;;;;5086760;28;20060;-35
2021/04/13 00:56:44;;;;;;;0.82;0.80;;;22.00;56.50;;;;;;5137965;27;20071;-35
2021/04/13 00:59:13;;;;;;;1.17;0.85;;;22.00;56.30;;;;;;5127063;27;20039;-35
2021/04/13 01:01:47;;;;;;;0.75;0.75;;;22.00;56.10;;;;;;5110336;27;20046;-35
2021/04/13 01:04:41;;;;;;;1.10;1.00;;;22.00;56.40;;;;;;5127495;27;20153;-34
2021/04/13 01:07:32;;;;;;;1.70;1.15;;;22.00;56.50;;;;;;5136468;27;20038;-35
2021/04/13 01:10:07;;;;;;;2.00;1.02;;;22.00;56.50;;;;;;5138483;27;20026;-34
2021/04/13 01:12:35;;;;;;;1.23;1.00;;;22.00;56.70;;;;;;5124415;28;20040;-34
2021/04/13 01:15:02;;;;;;;1.42;1.05;;;22.00;56.70;;;;;;5124820;28;20035;-34
2021/04/13 01:17:28;;;;;;;1.40;0.90;;;21.90;56.70;;;;;;5124626;28;20525;-35
2021/04/13 01:20:34;;;;;;;1.00;0.70;;;21.90;56.80;;;;;;5106232;28;20047;-34
2021/04/13 01:23:05;;;;;;;1.85;1.20;;;21.90;56.90;;;;;;5134346;27;20055;-35
2021/04/13 01:25:44;;;;;;;1.23;1.10;;;21.90;56.90;;;;;;5120718;28;20036;-34
2021/04/13 01:28:12;;;;;;;1.17;1.00;;;21.90;57.00;;;;;;5106045;28;20043;-35
2021/04/13 01:30:48;;;;;;;1.25;1.10;;;21.90;56.90;;;;;;5124567;28;20030;-35
2021/04/13 01:33:19;;;;;;;2.20;1.20;;;21.90;57.00;;;;;;5124481;28;20049;-35
2021/04/13 01:35:54;;;;;;;1.23;0.90;;;21.80;57.10;;;;;;5124381;28;20482;-34
2021/04/13 01:41:44;;;;;;;2.55;1.10;;;21.90;57.30;;;;;;5124071;28;20035;-35
2021/04/13 01:43:49;;;;;;;1.23;1.05;;;21.80;57.20;;;;;;5102134;28;20135;-35
2021/04/13 01:46:16;;;;;;;1.80;1.23;;;21.80;57.10;;;;;;5105852;28;20555;-34
2021/04/13 01:48:42;;;;;;;1.30;1.10;;;21.80;57.50;;;;;;5105312;28;20114;-35
2021/04/13 01:51:09;;;;;;;1.70;1.13;;;21.80;57.60;;;;;;5105835;28;20034;-35
2021/04/13 01:53:39;;;;;;;1.20;1.10;;;21.80;57.60;;;;;;5091062;28;20087;-35
2021/04/13 01:56:08;;;;;;;1.30;1.20;;;21.80;57.60;;;;;;5108408;27;20027;-35
2021/04/13 01:58:56;;;;;;;1.30;1.15;;;21.80;57.60;;;;;;5109177;27;20027;-34
2021/04/13 02:01:28;;;;;;;1.30;1.10;;;21.70;57.50;;;;;;5107953;27;20023;-34
2021/04/13 02:04:14;;;;;;;1.58;1.20;;;21.70;57.60;;;;;;5126224;27;20039;-34
2021/04/13 02:07:02;;;;;;;1.90;1.30;;;21.70;57.50;;;;;;5143032;27;20019;-35
2021/04/13 02:09:40;;;;;;;1.27;1.17;;;21.70;57.40;;;;;;5094779;27;20099;-35
2021/04/13 02:12:36;;;;;;;1.35;1.13;;;21.70;57.60;;;;;;5106231;28;20142;-34
2021/04/13 02:15:26;;;;;;;1.20;1.00;;;21.70;57.60;;;;;;5106631;28;20393;-34
2021/04/13 02:17:56;;;;;;;1.75;1.10;;;21.60;57.30;;;;;;5109015;28;20057;-34
2021/04/13 02:20:28;;;;;;;2.63;1.20;;;21.60;57.60;;;;;;5100135;27;20066;-34
2021/04/13 02:22:54;;;;;;;1.83;1.25;;;21.60;57.00;;;;;;5116556;28;20798;-34
2021/04/13 02:25:32;;;;;;;1.65;1.13;;;21.60;56.60;;;;;;5110242;27;20041;-34
2021/04/13 02:27:58;;;;;;;1.45;1.27;;;21.60;56.60;;;;;;5109095;27;20034;-34
2021/04/13 02:30:36;;;;;;;3.47;1.37;;;21.50;56.50;;;;;;5108662;27;20027;-34
2021/04/13 02:33:10;;;;;;;1.92;1.35;;;21.60;56.50;;;;;;5126871;27;20053;-34
2021/04/13 02:35:37;;;;;;;1.38;1.10;;;21.60;56.80;;;;;;5144145;27;20068;-34
2021/04/13 02:38:04;;;;;;;1.95;1.45;;;21.50;56.90;;;;;;5125343;27;20023;-34
2021/04/13 02:41:27;;;;;;;1.92;1.30;;;21.50;56.70;;;;;;5097149;28;20062;-34
2021/04/13 02:43:54;;;;;;;2.17;1.30;;;21.50;56.80;;;;;;5023449;28;20049;-34
2021/04/13 02:46:28;;;;;;;2.28;1.30;;;21.50;56.80;;;;;;5039850;28;20041;-34
2021/04/13 02:49:11;;;;;;;1.38;1.23;;;21.50;56.80;;;;;;5039713;28;20087;-34
2021/04/13 02:51:39;;;;;;;1.80;1.23;;;21.40;56.70;;;;;;5039719;28;20041;-35
2021/04/13 02:54:07;;;;;;;1.60;1.35;;;21.40;56.80;;;;;;5021623;28;20037;-34
2021/04/13 02:56:35;;;;;;;2.03;1.30;;;21.40;56.80;;;;;;5002243;28;20022;-35
2021/04/13 02:59:13;;;;;;;1.38;1.20;;;21.40;56.80;;;;;;5039652;28;20062;-34
2021/04/13 03:02:20;;;;;;;1.38;1.27;;;21.40;56.70;;;;;;5044070;28;20076;-34
2021/04/13 03:04:48;;;;;;;2.10;1.30;;;21.30;56.50;;;;;;5030347;28;20053;-34
2021/04/13 03:07:24;;;;;;;1.65;1.30;;;21.30;56.60;;;;;;5027130;28;20030;-35
2021/04/13 03:09:53;;;;;;;1.88;1.23;;;21.30;56.60;;;;;;5049341;28;20088;-34
2021/04/13 03:12:19;;;;;;;2.25;1.60;;;21.30;56.60;;;;;;5047041;28;20071;-34
2021/04/13 03:14:48;;;;;;;2.47;2.20;;;21.30;56.50;;;;;;5028217;28;20064;-34
2021/04/13 03:17:23;;;;;;;1.60;1.30;;;21.30;56.60;;;;;;5030724;28;20032;-34
2021/04/13 03:19:50;;;;;;;1.73;1.30;;;21.20;56.60;;;;;;5088649;28;20092;-35
2021/04/13 03:22:17;;;;;;;2.80;1.38;;;21.20;56.70;;;;;;5079396;27;20086;-35
2021/04/13 03:24:44;;;;;;;2.60;1.60;;;21.20;56.60;;;;;;5112256;27;20042;-34
2021/04/13 03:27:16;;;;;;;1.90;1.40;;;21.20;56.80;;;;;;5127014;28;20034;-34
2021/04/13 03:29:46;;;;;;;2.00;1.33;;;21.10;56.70;;;;;;5091929;28;20120;-34
2021/04/13 03:32:13;;;;;;;1.55;1.30;;;21.10;56.80;;;;;;5092256;28;20020;-34
2021/04/13 03:34:40;;;;;;;2.30;1.50;;;21.10;56.70;;;;;;5091649;28;20051;-34
2021/04/13 03:37:06;;;;;;;2.17;1.45;;;21.10;56.80;;;;;;5108515;28;20039;-34
2021/04/13 03:39:34;;;;;;;2.10;1.40;;;21.10;56.80;;;;;;5091516;28;20027;-34
2021/04/13 03:42:00;;;;;;;1.95;1.48;;;21.10;56.80;;;;;;5108104;28;20030;-34
2021/04/13 03:44:27;;;;;;;1.92;1.50;;;21.00;56.80;;;;;;5108413;28;20415;-34
2021/04/13 03:46:53;;;;;;;2.08;1.35;;;21.00;56.70;;;;;;5108439;28;20031;-34
2021/04/13 03:49:29;;;;;;;1.98;1.58;;;21.00;56.80;;;;;;5108397;28;20035;-34
2021/04/13 03:52:29;;;;;;;1.48;1.38;;;21.00;56.90;;;;;;5107512;28;20042;-35
2021/04/13 03:54:55;;;;;;;1.90;1.55;;;21.00;56.80;;;;;;5152760;27;20059;-34
2021/04/13 03:57:32;;;;;;;1.73;1.40;;;21.00;56.90;;;;;;5126262;28;20028;-34
2021/04/13 03:59:59;;;;;;;2.00;1.27;;;20.90;57.00;;;;;;5126702;28;20058;-34
2021/04/13 04:02:25;;;;;;;4.63;1.73;;;20.90;57.00;;;;;;5107895;28;20111;-34
2021/04/13 04:05:08;;;;;;;2.67;1.93;;;20.90;57.00;;;;;;5108173;28;20500;-35
2021/04/13 04:07:42;;;;;;;2.53;1.80;;;20.90;57.00;;;;;;5126139;28;20034;-34
2021/04/13 04:10:33;;;;;;;2.20;1.90;;;20.90;57.00;;;;;;5129316;27;20035;-34
2021/04/13 04:13:00;;;;;;;1.95;1.73;;;20.90;57.10;;;;;;5125790;28;20735;-34
2021/04/13 04:15:29;;;;;;;3.28;2.05;;;20.80;57.00;;;;;;5107863;28;20042;-34
2021/04/13 04:17:55;;;;;;;2.85;1.73;;;20.80;57.20;;;;;;5108080;28;20038;-35
2021/04/13 04:20:31;;;;;;;3.35;2.00;;;20.80;57.20;;;;;;5107813;28;20019;-34
2021/04/13 04:22:58;;;;;;;3.88;1.60;;;20.80;57.20;;;;;;5114042;27;20023;-35
2021/04/13 04:25:30;;;;;;;3.25;1.95;;;20.80;57.30;;;;;;5128819;27;20023;-34
2021/04/13 04:27:57;;;;;;;2.10;1.70;;;20.70;57.20;;;;;;5125788;28;20027;-34
2021/04/13 04:30:26;;;;;;;2.65;2.03;;;20.70;57.30;;;;;;5125923;28;20016;-34
2021/04/13 04:32:53;;;;;;;2.20;1.90;;;20.70;57.20;;;;;;5125691;28;20035;-34
2021/04/13 04:35:39;;;;;;;2.20;1.73;;;20.70;57.30;;;;;;5107487;28;20062;-34
2021/04/13 04:38:22;;;;;;;1.95;1.60;;;20.70;57.30;;;;;;5108382;28;20035;-33
2021/04/13 04:40:48;;;;;;;1.95;1.70;;;20.60;57.30;;;;;;5139833;27;20023;-34
2021/04/13 04:43:18;;;;;;;2.20;1.90;;;20.60;57.50;;;;;;5146044;27;20050;-34
2021/04/13 04:45:45;;;;;;;2.97;1.80;;;20.60;57.30;;;;;;5128109;27;20041;-34
2021/04/13 04:48:38;;;;;;;2.77;2.13;;;20.60;57.40;;;;;;5146350;27;20019;-34
2021/04/13 04:51:10;;;;;;;2.60;2.13;;;20.60;57.40;;;;;;5146262;27;20282;-34
2021/04/13 04:53:37;;;;;;;3.45;2.00;;;20.50;57.40;;;;;;5130747;27;21176;-34
2021/04/13 04:56:05;;;;;;;2.72;2.10;;;20.50;57.40;;;;;;5118283;27;20027;-34
2021/04/13 04:58:32;;;;;;;3.17;1.90;;;20.50;57.40;;;;;;5146097;27;20053;-34
2021/04/13 05:00:58;;;;;;;1.92;1.60;;;20.50;57.40;;;;;;5145867;27;20023;-34
2021/04/13 05:03:25;;;;;;;3.95;2.00;;;20.50;57.60;;;;;;5145674;27;20027;-34
2021/04/13 05:05:51;;;;;;;2.50;2.30;;;20.50;57.50;;;;;;5145851;27;20024;-34
2021/04/13 05:08:18;;;;;;;2.30;1.90;;;20.50;57.50;;;;;;5145656;27;20027;-34
2021/04/13 05:10:45;;;;;;;2.17;1.90;;;20.40;57.40;;;;;;5131779;27;20597;-35
2021/04/13 05:13:11;;;;;;;2.08;1.88;;;20.40;57.40;;;;;;5106348;28;20028;-34
2021/04/13 05:15:37;;;;;;;3.03;2.08;;;20.40;57.60;;;;;;5125105;28;20118;-34
2021/04/13 05:18:04;;;;;;;2.50;2.20;;;20.40;57.60;;;;;;5125007;28;20019;-35
2021/04/13 05:20:30;;;;;;;2.40;2.00;;;20.30;57.60;;;;;;5125119;28;20020;-34
2021/04/13 05:22:56;;;;;;;3.22;1.80;;;20.30;57.50;;;;;;5133388;27;20263;-34
2021/04/13 05:25:23;;;;;;;2.55;2.35;;;20.30;57.60;;;;;;5140142;27;20031;-34
2021/04/13 05:27:49;;;;;;;2.50;1.73;;;20.30;57.60;;;;;;5106315;28;20031;-34
2021/04/13 05:30:16;;;;;;;1.67;1.50;;;20.30;57.70;;;;;;5125123;27;20028;-34
2021/04/13 05:32:42;;;;;;;2.20;1.98;;;20.30;57.60;;;;;;5124831;28;20083;-36
2021/04/13 05:35:09;;;;;;;2.65;2.10;;;20.20;57.60;;;;;;5124702;27;20095;-34
2021/04/13 05:37:35;;;;;;;3.08;2.20;;;20.20;57.60;;;;;;5106428;28;20020;-34
2021/04/13 05:40:07;;;;;;;2.90;2.00;;;20.20;57.60;;;;;;5113551;27;20038;-35
2021/04/13 05:42:34;;;;;;;3.22;2.00;;;20.20;57.70;;;;;;5126605;27;20060;-34
2021/04/13 05:45:00;;;;;;;4.10;2.10;;;20.10;57.70;;;;;;5109506;27;20038;-34
2021/04/13 05:47:28;;;;;;;2.65;2.10;;;20.10;57.70;;;;;;5109852;27;20339;-34
2021/04/13 05:49:54;;;;;;;2.40;2.05;;;20.10;57.80;;;;;;5109936;27;20042;-34
2021/04/13 05:52:21;;;;;;;2.97;2.20;;;20.10;57.70;;;;;;5140284;27;20420;-34
2021/04/13 05:54:47;;;;;;;2.83;2.20;;;20.10;57.90;;;;;;5124088;28;20023;-34
2021/04/13 05:57:14;;;;;;;3.95;2.20;;;20.00;57.90;;;;;;5137969;27;20027;-34
2021/04/13 05:59:41;;;;;;;2.67;2.28;;;20.00;57.90;;;;;;5126758;27;20054;-34
2021/04/13 06:02:09;;;;;;;2.90;2.42;;;20.00;57.90;;;;;;5126379;27;20392;-34
2021/04/13 06:04:35;;;;;;;2.83;2.40;;;20.00;58.00;;;;;;5109254;27;20066;-33
2021/04/13 06:07:01;;;;;;;3.97;2.17;;;20.00;58.00;;;;;;5126152;27;20044;-34
2021/04/13 06:09:27;;;;;;;2.90;2.17;;;20.00;58.00;;;;;;5142045;27;20096;-34
2021/04/13 06:11:53;;;;;;;2.92;2.15;;;20.00;58.10;;;;;;5131808;27;20038;-34
2021/04/13 06:14:22;;;;;;;2.60;2.20;;;20.00;58.10;;;;;;5105502;28;20035;-34
2021/04/13 06:16:50;;;;;;;2.75;2.28;;;19.90;58.10;;;;;;5123983;28;20032;-34
2021/04/13 06:19:16;;;;;;;2.67;2.40;;;19.90;58.20;;;;;;5124013;28;20049;-34
2021/04/13 06:21:42;;;;;;;3.00;2.35;;;19.90;58.00;;;;;;5105602;28;20036;-34
2021/04/13 06:24:10;;;;;;;2.17;1.95;;;19.90;58.10;;;;;;5143385;27;20031;-34
2021/04/13 06:26:36;;;;;;;3.03;2.42;;;19.80;58.00;;;;;;5128581;27;20024;-34
2021/04/13 06:29:03;;;;;;;3.75;2.63;;;19.80;58.20;;;;;;5123690;28;20024;-34
2021/04/13 06:31:29;;;;;;;3.92;2.70;;;19.80;58.20;;;;;;5123805;28;20055;-34
2021/04/13 06:33:55;;;;;;;2.80;2.50;;;19.80;58.30;;;;;;5134525;27;20128;-34
2021/04/13 06:36:23;;;;;;;2.95;2.40;;;19.80;58.30;;;;;;5125591;27;20027;-34
2021/04/13 06:38:50;;;;;;;2.53;2.30;;;19.80;58.30;;;;;;5144155;27;20027;-34
2021/04/13 06:41:44;;;;;;;2.67;2.40;;;19.80;58.40;;;;;;5087537;28;20028;-34
2021/04/13 06:44:41;;;;;;;2.80;2.45;;;19.80;58.40;;;;;;5101828;28;20036;-34
2021/04/13 06:47:22;;;;;;;2.95;2.58;;;19.80;58.50;;;;;;5103018;28;20028;-34
2021/04/13 06:50:13;;;;;;;3.13;2.60;;;19.70;58.30;;;;;;5102038;28;20024;-34
2021/04/13 06:53:04;;;;;;;2.67;2.40;;;19.70;58.40;;;;;;5109900;28;20032;-34
2021/04/13 06:56:06;;;;;;;2.92;2.38;;;19.70;58.50;;;;;;5123188;28;20083;-34
2021/04/13 06:58:53;;;;;;;4.10;2.55;;;19.60;58.50;;;;;;5123462;28;20030;-34
2021/04/13 07:01:23;;;;;;;4.13;2.35;;;19.60;58.50;;;;;;5123525;28;20039;-34
2021/04/13 07:03:55;;;;;;;2.80;2.50;;;19.60;58.50;;;;;;5104968;28;20765;-34
2021/04/13 07:06:42;;;;;;;3.85;2.50;;;19.60;58.60;;;;;;5123212;28;20036;-34
2021/04/13 07:09:12;;;;;;;3.10;2.80;;;19.60;58.60;;;;;;5105116;28;20117;-35
2021/04/13 07:11:59;;;;;;;3.03;2.38;;;19.60;58.80;;;;;;5102674;28;20056;-34
2021/04/13 07:14:57;;;;;;;2.55;2.35;;;19.50;58.70;;;;;;5088575;28;20044;-34
2021/04/13 07:17:42;;;;;;;3.17;2.65;;;19.60;58.80;;;;;;5017327;28;20121;-34
2021/04/13 07:20:18;;;;;;;3.15;2.70;;;19.50;58.60;;;;;;4989085;28;20022;-34
2021/04/13 07:22:51;;;;;;;3.42;2.67;;;19.50;58.70;;;;;;5027318;28;20036;-34
2021/04/13 07:25:21;;;;;;;3.10;2.50;;;19.50;58.80;;;;;;5022994;28;20033;-34
2021/04/13 07:27:57;;;;;;;3.88;2.60;;;19.50;58.80;;;;;;5023417;28;20040;-34
2021/04/13 07:30:44;;;;;;;4.13;2.75;;;19.40;58.80;;;;;;5024326;28;20029;-34
2021/04/13 07:33:17;;;;;;;3.13;2.75;;;19.40;58.80;;;;;;5023383;28;20055;-34
2021/04/13 07:35:43;;;;;;;2.95;2.60;;;19.40;58.90;;;;;;5023326;28;20041;-34
2021/04/13 07:38:14;;;;;;;3.83;2.90;;;19.40;59.00;;;;;;5039566;28;20025;-34
2021/04/13 07:40:40;;;;;;;3.33;2.90;;;19.40;59.10;;;;;;5035573;28;20067;-34
2021/04/13 07:43:23;;;;;;;3.90;2.80;;;19.30;58.90;;;;;;5059365;28;20037;-34
2021/04/13 07:46:08;;;;;;;3.03;2.65;;;19.30;58.90;;;;;;5060559;28;20521;-34
2021/04/13 07:49:02;;;;;;;3.53;2.63;;;19.30;59.10;;;;;;5063323;28;20041;-34
2021/04/13 07:51:44;;;;;;;3.85;3.08;;;19.30;59.00;;;;;;5063216;28;20029;-34
2021/04/13 07:54:32;;;;;;;3.85;2.97;;;19.30;59.10;;;;;;5059130;28;20040;-33
2021/04/13 07:57:01;;;;;;;3.45;2.85;;;19.20;59.10;;;;;;5124569;28;20023;-34
2021/04/13 08:00:01;;;;;;;3.30;2.92;;;19.20;59.10;;;;;;5108457;28;20024;-34
2021/04/13 08:02:27;;;;;;;4.43;3.08;;;19.30;59.30;;;;;;5111446;27;20053;-34
2021/04/13 08:04:53;;;;;;;3.67;2.80;;;19.20;59.10;;;;;;5146910;27;20039;-34
2021/04/13 08:07:22;;;;;;;4.07;2.95;;;19.20;59.30;;;;;;5111064;27;20048;-34
2021/04/13 08:09:54;;;;;;;3.65;2.92;;;19.20;59.30;;;;;;5135821;27;20041;-34
2021/04/13 08:12:22;;;;;;;5.65;2.80;;;19.20;59.30;;;;;;5133734;27;20055;-34
2021/04/13 08:14:51;;;;;;;;;;;19.10;59.30;;;;;;5126571;28;20023;-34
2021/04/13 08:17:31;;;;;;;3.30;2.72;;;19.10;59.30;;;;;;5125894;28;19975;-34
2021/04/13 08:20:09;;;;;;;2.58;2.35;;;19.00;59.40;;;;;;5126111;28;20053;-34
2021/04/13 08:23:10;;;;;;;3.53;2.58;;;19.00;59.40;;;;;;5119571;28;20034;-34
2021/04/13 08:25:50;;;;;;;3.38;2.85;;;19.00;59.40;;;;;;5094184;28;20052;-34
2021/04/13 08:28:37;;;;;;;3.70;3.08;;;19.00;59.50;;;;;;5121072;28;20055;-34
2021/04/13 08:34:24;;;;;;;3.20;2.88;;;19.00;59.60;;;;;;5103408;28;20035;-34
2021/04/13 08:37:26;;;;;;;4.43;3.22;;;18.90;59.50;;;;;;5104804;28;20036;-34
2021/04/13 08:40:14;;;;;;;4.40;2.65;;;18.90;59.60;;;;;;5121913;27;20023;-34
2021/04/13 08:42:51;;;;;;;3.72;3.05;;;18.90;59.80;;;;;;5146413;27;20491;-34
2021/04/13 08:45:30;;;;;;;3.53;3.10;;;18.90;59.60;;;;;;5146159;27;20057;-34
2021/04/13 08:48:00;;;;;;;3.78;2.92;;;18.90;59.70;;;;;;5128392;27;20068;-34
2021/04/13 08:50:36;;;;;;;3.65;2.92;;;18.90;59.60;;;;;;5146106;27;20027;-34
2021/04/13 08:53:07;;;;;;;3.45;3.03;;;18.90;59.80;;;;;;5135634;27;20059;-35
2021/04/13 08:55:35;;;;;;;6.20;3.15;;;18.80;59.80;;;;;;5125304;28;20020;-34
2021/04/13 08:58:06;;;;;;;3.70;3.35;;;18.80;59.80;;;;;;5123968;28;20023;-34
2021/04/13 09:00:46;;;;;;;3.97;3.33;;;18.80;59.80;;;;;;5124842;28;20547;-34
2021/04/13 09:03:14;;;;;;;3.80;3.38;;;18.80;59.90;;;;;;5125108;28;20035;-34
2021/04/13 09:05:41;;;;;;;5.38;3.30;;;18.80;59.70;;;;;;5107107;28;20036;-34
2021/04/13 09:08:27;;;;;;;3.47;3.17;;;18.80;59.80;;;;;;5125643;27;20022;-34
2021/04/13 09:11:08;;;;;;;3.67;3.38;;;18.70;59.70;;;;;;5112617;28;20022;-34
2021/04/13 09:13:36;;;;;;;3.10;2.83;;;18.80;59.80;;;;;;5116366;28;20027;-34
2021/04/13 09:16:08;;;;;;;3.20;2.78;;;18.70;59.80;;;;;;5106069;28;20024;-34
2021/04/13 09:18:51;;;;;;;3.72;3.20;;;18.70;59.90;;;;;;5124454;28;20035;-34
2021/04/13 09:21:43;;;;;;;4.63;3.20;;;18.70;60.10;;;;;;5124376;28;20024;-34
2021/04/13 09:24:41;;;;;;;9.95;3.55;;;18.70;59.80;;;;;;5105328;28;20035;-34
2021/04/13 09:27:34;;;;;;;10.68;4.00;;;18.70;60.70;;;;;;5105713;28;20023;-34
2021/04/13 09:30:23;;;;;;;14.93;4.80;;;18.70;61.10;;;;;;5106264;28;20027;-34
2021/04/13 09:32:49;;;;;;;7.97;4.65;;;18.70;61.40;;;;;;5108026;28;20019;-34
2021/04/13 09:35:27;;;;;;;8.48;4.00;;;18.70;61.60;;;;;;5124562;28;20024;-34
2021/04/13 09:38:18;;;;;;;7.18;4.18;;;18.70;61.80;;;;;;5124120;28;20084;-34
2021/04/13 09:41:11;;;;;;;10.43;4.47;;;18.70;62.10;;;;;;5130773;27;20023;-34
2021/04/13 09:44:16;;;;;;;10.88;4.20;;;18.70;62.20;;;;;;5144796;27;20038;-34
2021/04/13 09:47:01;;;;;;;12.90;4.35;;;18.70;62.20;;;;;;5133487;27;20031;-34
2021/04/13 09:49:47;;;;;;;9.85;4.10;;;18.70;62.30;;;;;;5144626;27;20119;-34
2021/04/13 09:52:31;;;;;;;10.02;4.28;;;18.70;62.30;;;;;;5122805;28;20062;-34
2021/04/13 09:55:13;;;;;;;8.40;3.63;;;18.60;62.30;;;;;;5105625;28;20030;-34
2021/04/13 09:57:50;;;;;;;9.57;3.85;;;18.60;62.30;;;;;;5105531;28;20081;-34
2021/04/13 10:00:29;;;;;;;9.25;3.97;;;18.60;62.30;;;;;;5106828;27;20026;-35
2021/04/13 10:03:11;;;;;;;8.13;3.88;;;18.60;62.30;;;;;;5102042;28;20024;-35
2021/04/13 10:05:39;;;;;;;5.88;3.90;;;18.60;62.30;;;;;;5121320;28;20039;-34
2021/04/13 10:08:09;;;;;;;7.68;4.28;;;18.60;62.40;;;;;;5125423;27;20118;-34
2021/04/13 10:10:58;;;;;;;8.25;4.32;;;18.60;62.60;;;;;;5131661;27;20032;-37
2021/04/13 10:13:49;;;;;;;7.10;3.60;;;18.60;62.40;;;;;;5108143;28;20032;-34
2021/04/13 10:16:18;;;;;;;6.57;3.88;;;18.60;62.40;;;;;;5123448;28;20484;-34
2021/04/13 10:19:02;;;;;;;5.35;3.72;;;18.60;62.40;;;;;;5123452;28;20031;-34
2021/04/13 10:22:03;;;;;;;4.75;3.63;;;18.60;62.50;;;;;;5123545;28;20038;-34
2021/04/13 10:24:47;;;;;;;5.63;4.07;;;18.50;62.40;;;;;;5097586;28;20036;-35
2021/04/13 10:27:50;;;;;;;5.13;3.85;;;18.50;62.50;;;;;;5105770;28;20045;-35
2021/04/13 10:30:52;;;;;;;6.40;3.75;;;18.50;62.50;;;;;;5123414;28;20024;-34
2021/04/13 10:33:49;;;;;;;7.15;3.85;;;18.50;62.50;;;;;;5107816;28;20028;-35
2021/04/13 10:36:22;;;;;;;5.78;3.80;;;18.50;62.50;;;;;;5105105;28;20027;-35
2021/04/13 10:39:09;;;;;;;13.35;4.22;;;18.50;62.50;;;;;;5111324;28;20023;-34
2021/04/13 10:42:08;;;;;;;4.55;3.42;;;18.50;63.30;;;;;;5100970;28;20038;-34
2021/04/13 10:44:53;;;;;;;;;;;18.40;62.50;;;;;;5092380;28;20046;-34
2021/04/13 10:47:43;;;;;;;4.97;3.70;;;18.40;62.70;;;;;;5123078;28;19918;-34
2021/04/13 10:50:18;;;;;;;5.00;3.53;;;18.40;62.60;;;;;;5123035;28;20024;-34
2021/04/13 10:53:10;;;;;;;5.78;3.95;;;18.40;62.60;;;;;;5112516;28;20027;-35
2021/04/13 10:55:41;;;;;;;4.65;3.90;;;18.40;62.60;;;;;;5143556;28;20049;-34
2021/04/13 10:58:34;;;;;;;4.53;3.97;;;18.40;62.80;;;;;;5109306;28;20031;-34
2021/04/13 11:01:10;;;;;;;5.13;3.50;;;18.40;63.00;;;;;;5107601;28;20028;-35
2021/04/13 11:04:08;;;;;;;6.55;4.03;;;18.40;62.90;;;;;;5122825;28;20047;-35
2021/04/13 11:07:02;;;;;;;5.35;3.97;;;18.40;62.80;;;;;;5104888;28;20020;-35
2021/04/13 11:09:59;;;;;;;5.65;3.75;;;18.30;62.70;;;;;;5132078;28;20027;-34
2021/04/13 11:12:46;;;;;;;5.38;3.97;;;18.30;62.80;;;;;;5122577;28;20043;-35
2021/04/13 11:15:45;;;;;;;4.03;3.50;;;18.30;62.80;;;;;;5104728;28;20081;-35
2021/04/13 11:18:24;;;;;;;;;;;18.30;62.80;;;;;;5123252;28;20079;-34
2021/04/13 11:21:13;;;;;;;5.70;3.80;;;18.30;62.90;;;;;;5124192;28;19907;-34
2021/04/13 11:23:52;;;;;;;4.63;3.47;;;18.20;62.80;;;;;;5108636;28;20826;-34
2021/04/13 11:26:42;;;;;;;5.55;4.28;;;18.20;62.90;;;;;;5126831;28;20050;-34
2021/04/13 11:29:46;;;;;;;4.90;3.47;;;18.20;62.90;;;;;;5108108;28;20023;-34
2021/04/13 11:32:31;;;;;;;5.00;4.13;;;18.20;62.90;;;;;;5126816;28;20087;-34
2021/04/13 11:34:57;;;;;;;6.57;3.80;;;18.20;63.60;;;;;;5126861;28;20023;-34
2021/04/13 11:37:39;;;;;;;4.15;3.60;;;18.20;62.90;;;;;;5126375;28;20019;-34
2021/04/13 11:40:14;;;;;;;5.88;3.97;;;18.20;63.00;;;;;;5117339;28;20495;-34
2021/04/13 11:42:41;;;;;;;5.28;3.88;;;18.20;63.10;;;;;;5126549;28;20028;-34
2021/04/13 11:45:28;;;;;;;4.63;3.75;;;18.20;62.90;;;;;;5126563;28;20078;-34
2021/04/13 11:48:21;;;;;;;6.18;4.13;;;18.20;63.00;;;;;;5126374;28;20057;-34
2021/04/13 11:51:03;;;;;;;6.32;4.25;;;18.10;62.90;;;;;;5126231;28;20046;-35
2021/04/13 11:53:46;;;;;;;4.03;3.63;;;18.10;62.90;;;;;;5140049;27;20209;-34
2021/04/13 11:56:31;;;;;;;4.75;3.55;;;18.10;63.00;;;;;;5146720;27;20035;-34
2021/04/13 11:59:17;;;;;;;5.65;4.10;;;18.10;63.00;;;;;;5110346;28;20555;-34
2021/04/13 12:01:44;;;;;;;6.50;4.20;;;18.10;63.10;;;;;;5126140;28;20055;-34
2021/04/13 12:04:11;;;;;;;4.65;4.05;;;18.10;63.10;;;;;;5106664;28;20063;-34
2021/04/13 12:07:03;;;;;;;6.15;4.20;;;18.10;63.10;;;;;;5108143;27;20089;-34
2021/04/13 12:09:36;;;;;;;4.90;4.40;;;18.10;63.10;;;;;;5135342;27;21080;-34
2021/04/13 12:12:03;;;;;;;6.15;4.03;;;18.00;63.00;;;;;;5125784;28;20065;-34
2021/04/13 12:14:41;;;;;;;4.60;3.75;;;18.00;63.00;;;;;;5090291;28;20098;-34
2021/04/13 12:17:29;;;;;;;6.65;4.30;;;18.00;63.10;;;;;;5107594;28;20023;-34
2021/04/13 12:22:54;;;;;;;5.18;4.18;;;18.00;63.10;;;;;;5116788;28;20449;-34
2021/04/13 12:25:38;;;;;;;;;;;18.00;63.20;;;;;;5121110;28;20036;-34
2021/04/13 12:28:11;;;;;;;4.47;3.55;;;18.00;63.20;;;;;;5105410;28;19987;-34
2021/04/13 12:30:43;;;;;;;5.70;4.15;;;18.00;63.10;;;;;;5105233;28;20032;-34
2021/04/13 12:33:11;;;;;;;5.38;4.15;;;17.90;63.20;;;;;;5107410;28;20028;-34
2021/04/13 12:35:49;;;;;;;6.03;3.97;;;17.90;63.50;;;;;;5107318;28;20023;-34
2021/04/13 12:38:55;;;;;;;6.53;4.28;;;18.00;63.40;;;;;;5127159;27;20087;-34
2021/04/13 12:41:30;;;;;;;7.53;4.65;;;18.00;63.60;;;;;;5108516;28;20028;-33
2021/04/13 12:44:13;;;;;;;6.35;4.65;;;18.00;63.50;;;;;;5110483;27;20031;-33
2021/04/13 12:46:40;;;;;;;6.43;4.10;;;18.00;63.50;;;;;;5129689;27;20534;-33
2021/04/13 12:49:12;;;;;;;7.20;4.00;;;18.00;63.60;;;;;;5127376;27;20495;-33
2021/04/13 12:52:03;;;;;;;5.25;3.90;;;18.00;63.60;;;;;;5145772;27;20031;-35
2021/04/13 12:54:42;;;;;;;5.10;3.60;;;18.00;64.30;;;;;;5085851;28;20020;-37
2021/04/13 12:57:17;;;;;;;5.00;4.13;;;18.00;63.60;;;;;;5104726;28;20138;-34
2021/04/13 12:59:43;;;;;;;8.98;4.25;;;18.00;63.80;;;;;;5114705;28;20036;-33
2021/04/13 13:02:28;;;;;;;5.13;3.80;;;18.00;63.70;;;;;;5124864;28;20039;-34
2021/04/13 13:04:55;;;;;;;6.40;3.97;;;18.10;63.90;;;;;;5124416;28;20035;-34
2021/04/13 13:07:23;;;;;;;5.88;3.95;;;18.00;63.90;;;;;;5124802;28;20030;-33
2021/04/13 13:09:49;;;;;;;4.40;3.83;;;18.10;63.80;;;;;;5134201;27;20036;-33
2021/04/13 13:12:18;;;;;;;4.10;3.50;;;18.10;63.80;;;;;;5124613;28;20044;-33
2021/04/13 13:14:45;;;;;;;4.93;3.90;;;18.10;63.90;;;;;;5124404;28;20051;-34
2021/04/13 13:17:28;;;;;;;4.85;3.90;;;18.10;63.90;;;;;;5124815;28;20047;-33
2021/04/13 13:19:54;;;;;;;4.95;4.10;;;18.10;63.80;;;;;;5124767;28;20031;-33
2021/04/13 13:22:23;;;;;;;4.40;3.65;;;18.10;63.90;;;;;;5124680;28;20549;-33
2021/04/13 13:24:51;;;;;;;6.03;4.20;;;18.10;63.90;;;;;;5123594;28;20048;-34
2021/04/13 13:27:31;;;;;;;9.07;3.85;;;18.20;63.80;;;;;;5124679;28;20027;-33
2021/04/13 13:30:03;;;;;;;6.40;3.78;;;18.10;63.70;;;;;;5124506;28;20035;-34
2021/04/13 13:32:30;;;;;;;6.93;4.20;;;18.10;63.60;;;;;;5090028;28;20026;-34
2021/04/13 13:35:00;;;;;;;5.33;3.83;;;18.20;63.50;;;;;;5124077;28;20079;-33
2021/04/13 13:37:30;;;;;;;5.22;4.00;;;18.20;63.50;;;;;;5105825;28;20028;-35
2021/04/13 13:39:57;;;;;;;4.53;3.60;;;18.20;63.50;;;;;;5133380;27;20089;-33
2021/04/13 13:42:23;;;;;;;4.00;3.60;;;18.20;63.50;;;;;;5105804;28;20048;-34